Time;durP1;ratioP1;P1;durP2;ratioP2;P2;SDS_P1;SDS_P2;PMS_P1;PMS_P2;Temp;Humidity;BMP_temperature;BMP_pressure;BME280_temperature;BME280_humidity;BME280_pressure;Samples;Min_cycle;Max_cycle;Signal;HPM_P1;HPM_P2
2022/05/26 04:45:15;;;;;;;4.15;1.88;;;;;;;;;;5033839;23;20099;-59
2022/05/26 04:47:42;;;;;;;3.05;1.58;;;;;;;;;;4877129;29;20518;-60
2022/05/26 04:50:09;;;;;;;1.80;1.30;;;;;;;;;;4895968;29;20032;-60
2022/05/26 04:52:36;;;;;;;2.42;1.50;;;;;;;;;;4895295;29;20033;-60
2022/05/26 04:55:03;;;;;;;4.18;1.55;;;;;;;;;;4895476;29;20040;-62
2022/05/26 04:57:30;;;;;;;4.53;1.80;;;;;;;;;;4895511;29;20103;-62
2022/05/26 04:59:56;;;;;;;2.30;1.55;;;;;;;;;;4895548;29;20083;-59
2022/05/26 05:02:22;;;;;;;4.57;1.67;;;;;;;;;;4895697;29;20033;-59
2022/05/26 05:04:49;;;;;;;6.57;1.60;;;;;;;;;;4895407;29;20092;-58
2022/05/26 05:07:17;;;;;;;3.80;1.40;;;;;;;;;;4895253;29;20033;-60
2022/05/26 05:09:43;;;;;;;6.97;1.73;;;;;;;;;;4895357;29;20031;-59
2022/05/26 05:12:12;;;;;;;5.68;1.48;;;;;;;;;;4895563;29;20059;-59
2022/05/26 05:14:43;;;;;;;8.50;1.67;;;;;;;;;;4895084;29;20631;-59
2022/05/26 05:17:09;;;;;;;11.95;2.60;;;;;;;;;;4895459;29;20036;-72
2022/05/26 05:19:36;;;;;;;6.05;1.50;;;;;;;;;;4894561;29;20029;-73
2022/05/26 05:22:11;;;;;;;12.43;1.77;;;;;;;;;;4894926;29;20080;-61
2022/05/26 05:24:46;;;;;;;2.65;1.40;;;;;;;;;;4893561;29;20036;-77
2022/05/26 05:27:33;;;;;;;3.63;1.40;;;;;;;;;;4895045;29;20032;-59
2022/05/26 05:30:02;;;;;;;1.40;1.10;;;;;;;;;;4895089;29;20445;-66
2022/05/26 05:32:32;;;;;;;6.82;1.35;;;;;;;;;;4895865;29;20056;-67
2022/05/26 05:35:05;;;;;;;3.38;1.20;;;;;;;;;;4894403;29;20091;-66
2022/05/26 05:37:32;;;;;;;2.05;1.13;;;;;;;;;;4895180;29;20032;-58
2022/05/26 05:39:58;;;;;;;5.28;3.38;;;;;;;;;;4895132;29;20021;-69
2022/05/26 05:42:24;;;;;;;2.25;1.17;;;;;;;;;;4898025;29;20481;-64
2022/05/26 05:44:50;;;;;;;4.25;0.95;;;;;;;;;;4898190;29;20157;-60
2022/05/26 05:47:17;;;;;;;3.35;1.00;;;;;;;;;;4898130;29;20036;-69
2022/05/26 05:49:44;;;;;;;4.03;1.05;;;;;;;;;;4898716;29;20028;-58
2022/05/26 05:52:17;;;;;;;5.43;1.30;;;;;;;;;;4898104;29;20091;-57
2022/05/26 05:54:43;;;;;;;4.82;1.33;;;;;;;;;;4898517;29;20408;-71
2022/05/26 05:57:09;;;;;;;2.38;1.13;;;;;;;;;;4897774;29;20033;-67
2022/05/26 05:59:35;;;;;;;6.18;1.10;;;;;;;;;;4898286;29;20334;-65
2022/05/26 06:02:01;;;;;;;4.70;1.30;;;;;;;;;;4898397;29;20107;-67
2022/05/26 06:04:28;;;;;;;2.78;1.30;;;;;;;;;;4898503;29;20031;-61
2022/05/26 06:06:54;;;;;;;3.95;1.30;;;;;;;;;;4898402;29;20032;-68
2022/05/26 06:09:20;;;;;;;6.85;1.50;;;;;;;;;;4898257;29;20029;-66
2022/05/26 06:11:47;;;;;;;2.47;1.17;;;;;;;;;;4897843;29;20081;-56
2022/05/26 06:14:13;;;;;;;4.43;1.20;;;;;;;;;;4897988;29;20029;-59
2022/05/26 06:16:39;;;;;;;4.38;1.30;;;;;;;;;;4897783;29;20493;-61
2022/05/26 06:19:05;;;;;;;5.30;1.15;;;;;;;;;;4898131;29;20116;-66
2022/05/26 06:21:32;;;;;;;3.90;1.27;;;;;;;;;;4898321;29;20033;-65
2022/05/26 06:23:58;;;;;;;3.25;1.10;;;;;;;;;;4898077;29;20048;-71
2022/05/26 06:26:25;;;;;;;5.95;1.02;;;;;;;;;;4898241;29;20413;-71
2022/05/26 06:31:36;;;;;;;2.65;0.80;;;;;;;;;;4897964;29;20512;-62
2022/05/26 06:39:32;;;;;;;1.05;0.80;;;;;;;;;;4897855;29;20449;-70
2022/05/26 06:42:07;;;;;;;1.75;0.63;;;;;;;;;;4897958;29;20037;-65
2022/05/26 06:44:38;;;;;;;2.45;0.70;;;;;;;;;;4897595;29;20048;-60
2022/05/26 06:47:05;;;;;;;2.10;0.70;;;;;;;;;;4898090;29;20032;-75
2022/05/26 06:49:33;;;;;;;3.60;0.70;;;;;;;;;;4897899;29;20099;-58
2022/05/26 06:51:59;;;;;;;1.40;0.70;;;;;;;;;;4897312;29;20033;-61
2022/05/26 06:54:25;;;;;;;4.53;0.90;;;;;;;;;;4897271;29;20051;-74
2022/05/26 06:56:51;;;;;;;1.48;0.73;;;;;;;;;;4897097;29;20400;-70
2022/05/26 06:59:17;;;;;;;3.78;1.33;;;;;;;;;;4897585;29;20385;-58
2022/05/26 07:01:43;;;;;;;3.80;1.38;;;;;;;;;;4897477;29;20370;-58
2022/05/26 07:04:09;;;;;;;3.47;1.00;;;;;;;;;;4897357;29;20025;-60
2022/05/26 07:06:35;;;;;;;3.47;0.70;;;;;;;;;;4897160;29;20103;-58
2022/05/26 07:09:01;;;;;;;3.38;0.80;;;;;;;;;;4897213;29;20040;-59
2022/05/26 07:11:27;;;;;;;1.65;0.70;;;;;;;;;;4897230;29;20084;-59
2022/05/26 07:13:53;;;;;;;1.45;0.80;;;;;;;;;;4897326;29;20112;-58
2022/05/26 07:16:19;;;;;;;2.53;0.90;;;;;;;;;;4896778;29;20040;-58
2022/05/26 07:18:46;;;;;;;1.50;0.95;;;;;;;;;;4897445;29;20059;-59
2022/05/26 07:21:12;;;;;;;4.38;0.80;;;;;;;;;;4897384;29;20080;-60
2022/05/26 07:23:39;;;;;;;2.28;0.77;;;;;;;;;;4896563;29;20057;-59
2022/05/26 07:26:10;;;;;;;1.35;0.68;;;;;;;;;;4896608;29;20184;-59
2022/05/26 07:28:38;;;;;;;2.13;0.77;;;;;;;;;;4887382;29;20021;-63
2022/05/26 07:31:04;;;;;;;1.77;0.70;;;;;;;;;;4886109;29;20035;-70
2022/05/26 07:33:30;;;;;;;4.85;1.20;;;;;;;;;;4884653;29;20029;-63
2022/05/26 07:35:56;;;;;;;2.80;0.70;;;;;;;;;;4875522;29;20029;-60
2022/05/26 07:41:18;;;;;;;2.08;0.90;;;;;;;;;;4878223;29;20100;-59
2022/05/26 07:43:47;;;;;;;1.83;0.80;;;;;;;;;;4877812;29;20025;-62
2022/05/26 07:46:13;;;;;;;3.55;1.02;;;;;;;;;;4885320;29;20404;-64
2022/05/26 07:48:39;;;;;;;3.30;1.02;;;;;;;;;;4896167;29;20029;-62
2022/05/26 07:51:05;;;;;;;8.00;1.30;;;;;;;;;;4896605;29;20089;-62
2022/05/26 07:53:31;;;;;;;2.42;1.20;;;;;;;;;;4896314;29;20025;-62
2022/05/26 07:56:00;;;;;;;3.03;0.98;;;;;;;;;;4896552;29;20044;-62
2022/05/26 07:58:26;;;;;;;2.92;1.05;;;;;;;;;;4895912;29;20028;-66
2022/05/26 08:00:53;;;;;;;4.40;0.90;;;;;;;;;;4896007;29;20064;-63
2022/05/26 08:03:19;;;;;;;4.13;1.00;;;;;;;;;;4895892;29;20051;-65
2022/05/26 08:05:45;;;;;;;5.65;1.35;;;;;;;;;;4896255;29;20068;-62
2022/05/26 08:08:11;;;;;;;2.58;1.10;;;;;;;;;;4896510;29;20028;-63
2022/05/26 08:10:39;;;;;;;3.50;1.00;;;;;;;;;;4896192;29;20032;-62
2022/05/26 08:13:06;;;;;;;3.38;1.35;;;;;;;;;;4896136;29;20116;-62
2022/05/26 08:15:32;;;;;;;4.82;1.10;;;;;;;;;;4895493;29;20088;-62
2022/05/26 08:17:58;;;;;;;2.95;1.20;;;;;;;;;;4896512;29;20488;-62
2022/05/26 08:20:24;;;;;;;4.70;1.35;;;;;;;;;;4895885;29;20374;-63
2022/05/26 08:22:50;;;;;;;3.67;1.23;;;;;;;;;;4895761;29;20028;-62
2022/05/26 08:25:16;;;;;;;4.80;1.10;;;;;;;;;;4896052;29;20021;-62
2022/05/26 08:27:42;;;;;;;3.63;1.40;;;;;;;;;;4895983;29;20036;-62
2022/05/26 08:30:09;;;;;;;5.22;1.60;;;;;;;;;;4895685;29;20040;-62
2022/05/26 08:32:35;;;;;;;5.10;1.17;;;;;;;;;;4895714;29;20095;-62
2022/05/26 08:35:03;;;;;;;7.25;1.38;;;;;;;;;;4896037;29;20028;-62
2022/05/26 08:37:29;;;;;;;5.32;1.50;;;;;;;;;;4895330;29;20159;-63
2022/05/26 08:39:56;;;;;;;3.28;1.23;;;;;;;;;;4896038;29;20048;-65
2022/05/26 08:42:23;;;;;;;5.45;1.10;;;;;;;;;;4895571;29;20133;-61
2022/05/26 08:44:50;;;;;;;3.70;1.30;;;;;;;;;;4895620;29;20060;-65
2022/05/26 08:47:18;;;;;;;3.65;1.13;;;;;;;;;;4895588;29;20029;-61
2022/05/26 08:50:03;;;;;;;3.88;1.38;;;;;;;;;;4895435;29;20028;-61
2022/05/26 08:52:31;;;;;;;5.35;1.55;;;;;;;;;;4895490;29;20051;-62
2022/05/26 08:55:06;;;;;;;5.65;1.40;;;;;;;;;;4895769;29;20516;-61
2022/05/26 08:57:41;;;;;;;4.57;1.20;;;;;;;;;;4895898;29;20031;-61
2022/05/26 09:00:09;;;;;;;3.30;1.30;;;;;;;;;;4895368;29;20139;-61
2022/05/26 09:02:37;;;;;;;5.32;1.40;;;;;;;;;;4895292;29;20060;-62
2022/05/26 09:05:05;;;;;;;5.65;1.10;;;;;;;;;;4895538;29;20028;-64
2022/05/26 09:13:19;;;;;;;3.85;1.60;;;;;;;;;;4895765;29;20044;-65
2022/05/26 09:15:45;;;;;;;4.22;1.63;;;;;;;;;;4895762;29;20139;-64
2022/05/26 09:18:16;;;;;;;4.05;1.60;;;;;;;;;;4899070;29;20033;-64
2022/05/26 09:20:43;;;;;;;4.25;2.10;;;;;;;;;;4899519;29;20036;-64
2022/05/26 09:23:12;;;;;;;5.20;2.13;;;;;;;;;;4899123;29;20028;-63
2022/05/26 09:25:46;;;;;;;4.85;2.25;;;;;;;;;;4899220;29;20528;-65
2022/05/26 09:28:13;;;;;;;5.32;2.20;;;;;;;;;;4898695;29;20060;-66
2022/05/26 09:30:40;;;;;;;5.10;1.90;;;;;;;;;;4898353;29;20370;-66
2022/05/26 09:33:29;;;;;;;4.35;2.58;;;;;;;;;;4899182;29;20033;-62
2022/05/26 09:36:13;;;;;;;6.07;2.50;;;;;;;;;;4804219;29;20063;-63
2022/05/26 09:38:39;;;;;;;5.57;2.42;;;;;;;;;;4804465;29;20027;-61
2022/05/26 09:41:08;;;;;;;6.45;2.38;;;;;;;;;;4804296;29;20139;-65
2022/05/26 09:43:34;;;;;;;5.57;2.58;;;;;;;;;;4804014;29;20031;-64
2022/05/26 09:46:08;;;;;;;4.95;2.80;;;;;;;;;;4803849;29;20088;-62
2022/05/26 09:48:35;;;;;;;4.57;2.17;;;;;;;;;;4804182;29;20035;-65
2022/05/26 09:51:04;;;;;;;7.07;2.40;;;;;;;;;;4804093;29;20148;-63
2022/05/26 09:53:35;;;;;;;5.32;2.65;;;;;;;;;;4804078;29;20571;-64
2022/05/26 09:56:01;;;;;;;6.47;2.90;;;;;;;;;;4804261;29;20046;-64
2022/05/26 09:58:29;;;;;;;6.25;2.50;;;;;;;;;;4804130;29;20034;-64
2022/05/26 10:01:03;;;;;;;10.13;3.08;;;;;;;;;;4791564;29;20051;-61
2022/05/26 10:03:48;;;;;;;9.65;2.95;;;;;;;;;;4785899;30;20649;-63
2022/05/26 10:06:16;;;;;;;6.63;2.92;;;;;;;;;;4785838;30;20047;-63
2022/05/26 10:08:45;;;;;;;6.78;2.53;;;;;;;;;;4786016;30;20509;-67
2022/05/26 10:11:23;;;;;;;7.50;2.92;;;;;;;;;;4785436;30;20096;-64
2022/05/26 10:13:49;;;;;;;8.77;2.70;;;;;;;;;;4867184;29;20058;-66
2022/05/26 10:16:18;;;;;;;9.13;3.08;;;;;;;;;;4878836;29;20064;-64
2022/05/26 10:19:05;;;;;;;6.47;2.80;;;;;;;;;;4879339;29;20504;-61
2022/05/26 10:21:45;;;;;;;8.48;2.90;;;;;;;;;;4878169;29;20068;-65
2022/05/26 10:24:30;;;;;;;4.13;2.08;;;;;;;;;;4879199;29;20029;-65
2022/05/26 10:27:02;;;;;;;4.93;2.40;;;;;;;;;;4878457;29;20092;-62
2022/05/26 10:29:47;;;;;;;5.30;2.15;;;;;;;;;;4879088;29;20117;-64
2022/05/26 10:32:13;;;;;;;5.35;2.35;;;;;;;;;;4897622;29;20061;-62
2022/05/26 10:35:03;;;;;;;4.88;2.55;;;;;;;;;;4897287;29;20052;-62
2022/05/26 10:37:36;;;;;;;7.70;2.70;;;;;;;;;;4897482;29;20171;-63
2022/05/26 10:40:21;;;;;;;5.85;2.33;;;;;;;;;;4897161;29;20025;-64
2022/05/26 10:42:57;;;;;;;5.97;2.85;;;;;;;;;;4896628;29;20116;-63
2022/05/26 10:45:32;;;;;;;5.32;2.45;;;;;;;;;;4896043;29;20055;-63
2022/05/26 10:48:00;;;;;;;6.43;2.58;;;;;;;;;;4897021;29;20036;-63
2022/05/26 10:50:49;;;;;;;4.40;1.92;;;;;;;;;;4897218;29;20088;-66
2022/05/26 10:53:20;;;;;;;6.80;2.05;;;;;;;;;;4884653;29;20045;-63
2022/05/26 10:55:52;;;;;;;5.28;1.90;;;;;;;;;;4897064;29;20037;-63
2022/05/26 10:58:29;;;;;;;5.47;2.33;;;;;;;;;;4897157;29;20064;-63
2022/05/26 11:00:59;;;;;;;4.38;1.60;;;;;;;;;;4890850;29;20029;-63
2022/05/26 11:03:28;;;;;;;3.45;1.80;;;;;;;;;;4887191;29;20025;-62
2022/05/26 11:06:05;;;;;;;4.82;1.80;;;;;;;;;;4886245;29;20071;-63
2022/05/26 11:08:43;;;;;;;8.45;1.88;;;;;;;;;;4886412;29;20151;-64
2022/05/26 11:11:12;;;;;;;4.45;1.50;;;;;;;;;;4893563;29;20056;-63
2022/05/26 11:14:02;;;;;;;5.10;1.50;;;;;;;;;;4896945;29;20115;-63
2022/05/26 11:19:39;;;;;;;8.18;1.60;;;;;;;;;;4878954;29;20157;-63
2022/05/26 11:22:05;;;;;;;3.08;1.30;;;;;;;;;;4878093;29;20482;-64
2022/05/26 11:24:33;;;;;;;2.97;1.40;;;;;;;;;;4877904;29;20466;-65
2022/05/26 11:27:02;;;;;;;4.68;1.85;;;;;;;;;;4877947;29;20025;-64
2022/05/26 11:29:31;;;;;;;3.58;1.70;;;;;;;;;;4877844;29;20025;-64
2022/05/26 11:37:40;;;;;;;4.20;1.73;;;;;;;;;;4877850;29;20060;-65
2022/05/26 11:40:08;;;;;;;5.43;2.47;;;;;;;;;;4877281;29;20041;-64
2022/05/26 11:42:49;;;;;;;4.97;1.92;;;;;;;;;;4876752;29;20033;-63
2022/05/26 11:45:27;;;;;;;6.30;2.22;;;;;;;;;;4877053;29;20045;-65
2022/05/26 11:47:55;;;;;;;11.20;2.53;;;;;;;;;;4877409;29;20048;-66
2022/05/26 11:50:21;;;;;;;8.00;2.00;;;;;;;;;;4877032;29;20029;-67
2022/05/26 11:52:47;;;;;;;5.88;1.70;;;;;;;;;;4877144;29;20033;-66
2022/05/26 11:55:32;;;;;;;3.35;1.33;;;;;;;;;;4877187;29;20414;-65
2022/05/26 11:58:13;;;;;;;2.42;1.00;;;;;;;;;;4877004;29;20033;-65
2022/05/26 12:00:40;;;;;;;2.17;1.00;;;;;;;;;;4876967;29;20041;-64
2022/05/26 12:03:24;;;;;;;2.38;1.10;;;;;;;;;;4877241;29;20116;-64
2022/05/26 12:05:56;;;;;;;3.92;0.90;;;;;;;;;;4877291;29;20033;-65
2022/05/26 12:08:25;;;;;;;3.42;1.17;;;;;;;;;;4877548;29;20088;-65
2022/05/26 12:10:53;;;;;;;2.85;0.80;;;;;;;;;;4877039;29;20037;-64
2022/05/26 12:13:20;;;;;;;2.42;1.00;;;;;;;;;;4877011;29;20033;-64
2022/05/26 12:16:04;;;;;;;4.47;2.15;;;;;;;;;;4877356;29;20473;-65
2022/05/26 12:18:38;;;;;;;1.65;0.98;;;;;;;;;;4877083;29;20101;-65
2022/05/26 12:21:11;;;;;;;2.17;0.90;;;;;;;;;;4876814;29;20036;-65
2022/05/26 12:23:37;;;;;;;2.60;0.90;;;;;;;;;;4877015;29;20040;-65
2022/05/26 12:26:22;;;;;;;3.03;1.17;;;;;;;;;;4876842;29;20104;-65
2022/05/26 12:28:48;;;;;;;2.22;0.63;;;;;;;;;;4877159;29;20385;-65
2022/05/26 12:31:14;;;;;;;2.78;0.80;;;;;;;;;;4877333;29;20051;-66
2022/05/26 12:34:02;;;;;;;2.30;0.95;;;;;;;;;;4876433;29;20087;-64
2022/05/26 12:36:46;;;;;;;4.32;0.90;;;;;;;;;;4876532;29;20039;-65
2022/05/26 12:39:18;;;;;;;2.75;1.10;;;;;;;;;;4876047;29;20089;-67
2022/05/26 12:41:50;;;;;;;4.30;1.25;;;;;;;;;;4876448;29;20036;-64
2022/05/26 12:44:16;;;;;;;;;;;;;;;;;;4877111;29;20041;-65
2022/05/26 12:46:49;;;;;;;3.72;1.30;;;;;;;;;;4875971;29;20443;-64
2022/05/26 12:49:46;;;;;;;10.57;2.03;;;;;;;;;;4876743;29;20176;-62
2022/05/26 12:52:12;;;;;;;5.70;1.58;;;;;;;;;;4880614;29;20033;-62
2022/05/26 12:54:51;;;;;;;5.70;1.60;;;;;;;;;;4880801;29;20549;-63
2022/05/26 12:57:22;;;;;;;9.30;1.98;;;;;;;;;;4880785;29;20036;-67
2022/05/26 12:59:48;;;;;;;3.38;1.52;;;;;;;;;;4880472;29;20065;-67
2022/05/26 13:02:15;;;;;;;6.35;1.48;;;;;;;;;;4863520;29;20041;-69
2022/05/26 13:04:42;;;;;;;7.28;1.65;;;;;;;;;;4863627;29;20026;-69
2022/05/26 13:07:09;;;;;;;10.05;1.42;;;;;;;;;;4880549;29;20036;-65
2022/05/26 13:09:46;;;;;;;7.95;1.50;;;;;;;;;;4880470;29;20022;-67
2022/05/26 13:12:18;;;;;;;6.15;1.35;;;;;;;;;;4884998;29;20486;-68
2022/05/26 13:14:45;;;;;;;;;;;;;;;;;;4892632;29;20036;-67
2022/05/26 13:17:15;;;;;;;6.28;1.90;;;;;;;;;;4887033;29;19927;-65
2022/05/26 13:19:47;;;;;;;5.90;2.50;;;;;;;;;;4884285;29;20033;-67
2022/05/26 13:22:18;;;;;;;4.97;2.17;;;;;;;;;;4880358;29;20032;-65
2022/05/26 13:24:58;;;;;;;5.13;2.47;;;;;;;;;;4880680;29;20112;-67
2022/05/26 13:27:41;;;;;;;4.85;2.22;;;;;;;;;;4889774;29;20640;-67
2022/05/26 13:33:07;;;;;;;8.15;2.50;;;;;;;;;;4880082;29;20108;-63
2022/05/26 13:35:34;;;;;;;5.25;2.28;;;;;;;;;;4879998;29;20063;-70
2022/05/26 13:38:00;;;;;;;5.13;2.15;;;;;;;;;;4879464;29;20047;-65
2022/05/26 13:40:27;;;;;;;5.03;2.30;;;;;;;;;;4880116;29;20037;-67
2022/05/26 13:42:54;;;;;;;5.22;2.20;;;;;;;;;;4879756;29;20544;-67
2022/05/26 13:45:25;;;;;;;4.47;1.98;;;;;;;;;;4863060;29;20052;-65
2022/05/26 13:47:52;;;;;;;7.75;2.10;;;;;;;;;;4879611;29;20041;-68
2022/05/26 13:50:28;;;;;;;5.80;2.50;;;;;;;;;;4879511;29;20501;-67
2022/05/26 13:52:54;;;;;;;6.30;2.67;;;;;;;;;;4879447;29;20029;-67
2022/05/26 13:55:20;;;;;;;5.28;2.10;;;;;;;;;;4880082;29;20094;-68
2022/05/26 13:57:51;;;;;;;4.47;2.30;;;;;;;;;;4879102;29;20116;-67
2022/05/26 14:00:23;;;;;;;13.00;5.32;;;;;;;;;;4879424;29;20025;-66
2022/05/26 14:02:58;;;;;;;5.35;2.22;;;;;;;;;;4878787;29;20025;-67
2022/05/26 14:05:26;;;;;;;7.45;2.80;;;;;;;;;;4879723;29;20039;-67
2022/05/26 14:07:58;;;;;;;7.00;2.22;;;;;;;;;;4880011;29;20020;-67
2022/05/26 14:10:30;;;;;;;2.58;1.50;;;;;;;;;;4879307;29;20063;-68
2022/05/26 14:13:07;;;;;;;5.30;1.63;;;;;;;;;;4879438;29;20056;-66
2022/05/26 14:15:39;;;;;;;3.03;1.38;;;;;;;;;;4878785;29;20101;-68
2022/05/26 14:18:07;;;;;;;5.45;1.70;;;;;;;;;;4879360;29;20377;-67
2022/05/26 14:20:33;;;;;;;2.83;1.27;;;;;;;;;;4862280;29;20025;-67
2022/05/26 14:22:59;;;;;;;3.65;1.80;;;;;;;;;;4878784;29;20036;-68
2022/05/26 14:25:26;;;;;;;4.18;1.23;;;;;;;;;;4879299;29;20355;-67
2022/05/26 14:27:54;;;;;;;4.55;1.40;;;;;;;;;;4879123;29;20465;-69
2022/05/26 14:30:32;;;;;;;4.88;2.05;;;;;;;;;;4862147;29;20037;-68
2022/05/26 14:33:08;;;;;;;7.30;2.00;;;;;;;;;;4878795;29;20037;-67
2022/05/26 14:35:34;;;;;;;7.38;1.73;;;;;;;;;;4878576;29;20029;-68
2022/05/26 14:38:00;;;;;;;4.85;1.90;;;;;;;;;;4878581;29;20120;-68
2022/05/26 14:40:26;;;;;;;7.38;2.10;;;;;;;;;;4878686;29;20044;-68
2022/05/26 14:42:53;;;;;;;4.90;1.90;;;;;;;;;;4878369;29;20501;-68
2022/05/26 14:45:20;;;;;;;6.25;1.83;;;;;;;;;;4877793;29;20048;-67
2022/05/26 14:47:46;;;;;;;5.38;2.00;;;;;;;;;;4878359;29;20040;-67
2022/05/26 14:50:13;;;;;;;4.82;1.65;;;;;;;;;;4878491;29;20025;-68
2022/05/26 14:52:41;;;;;;;2.28;1.23;;;;;;;;;;4878235;29;20052;-68
2022/05/26 14:55:27;;;;;;;3.97;1.60;;;;;;;;;;4878266;29;20032;-67
2022/05/26 14:57:53;;;;;;;2.78;1.30;;;;;;;;;;4878448;29;20037;-67
2022/05/26 15:00:21;;;;;;;3.53;1.48;;;;;;;;;;4878264;29;20144;-67
2022/05/26 15:02:47;;;;;;;4.05;1.55;;;;;;;;;;4878496;29;20527;-68
2022/05/26 15:05:13;;;;;;;4.07;1.80;;;;;;;;;;4878605;29;20029;-68
2022/05/26 15:07:40;;;;;;;5.30;1.80;;;;;;;;;;4878507;29;20032;-68
2022/05/26 15:10:07;;;;;;;3.55;1.33;;;;;;;;;;4878449;29;20044;-67
2022/05/26 15:12:34;;;;;;;4.40;1.33;;;;;;;;;;4878320;29;20080;-67
2022/05/26 15:15:01;;;;;;;3.28;1.50;;;;;;;;;;4878347;29;20029;-67
2022/05/26 15:17:27;;;;;;;3.70;1.52;;;;;;;;;;4878256;29;20501;-68
2022/05/26 15:19:57;;;;;;;3.25;1.65;;;;;;;;;;4878200;29;20033;-69
2022/05/26 15:22:24;;;;;;;3.58;1.60;;;;;;;;;;4878461;29;20028;-68
2022/05/26 15:24:51;;;;;;;4.13;2.00;;;;;;;;;;4878250;29;20033;-67
2022/05/26 15:27:19;;;;;;;6.10;1.83;;;;;;;;;;4877987;29;20033;-68
2022/05/26 15:29:45;;;;;;;3.47;1.83;;;;;;;;;;4877868;29;20037;-68
2022/05/26 15:32:12;;;;;;;5.05;1.98;;;;;;;;;;4878295;29;20065;-67
2022/05/26 15:34:41;;;;;;;4.28;1.88;;;;;;;;;;4877959;29;20101;-67
2022/05/26 15:37:08;;;;;;;3.85;1.65;;;;;;;;;;4877857;29;20692;-68
2022/05/26 15:39:34;;;;;;;3.25;1.92;;;;;;;;;;4877844;29;20055;-67
2022/05/26 15:42:00;;;;;;;4.90;1.70;;;;;;;;;;4877934;29;20039;-67
2022/05/26 15:44:26;;;;;;;3.95;1.70;;;;;;;;;;4877611;29;20057;-67
2022/05/26 15:46:53;;;;;;;2.83;1.70;;;;;;;;;;4878239;29;20048;-66
2022/05/26 15:49:21;;;;;;;4.68;2.05;;;;;;;;;;4877185;29;20033;-65
2022/05/26 15:51:47;;;;;;;4.65;1.67;;;;;;;;;;4877353;29;20033;-61
2022/05/26 15:54:15;;;;;;;6.20;2.00;;;;;;;;;;4878597;29;20029;-65
2022/05/26 15:56:44;;;;;;;3.80;1.60;;;;;;;;;;4890172;29;20478;-69
2022/05/26 15:59:13;;;;;;;4.30;1.80;;;;;;;;;;4876447;29;20029;-68
2022/05/26 16:01:39;;;;;;;4.97;1.95;;;;;;;;;;4889820;29;20033;-70
2022/05/26 16:04:05;;;;;;;4.45;1.90;;;;;;;;;;4884932;29;20111;-68
2022/05/26 16:06:31;;;;;;;5.85;2.00;;;;;;;;;;4877069;29;20025;-67
2022/05/26 16:08:57;;;;;;;5.03;1.90;;;;;;;;;;4859835;29;20097;-68
2022/05/26 16:11:23;;;;;;;4.35;1.80;;;;;;;;;;4876792;29;20501;-64
2022/05/26 16:13:50;;;;;;;4.32;1.95;;;;;;;;;;4876970;29;20099;-64
2022/05/26 16:16:16;;;;;;;3.10;1.38;;;;;;;;;;4876941;29;20065;-67
2022/05/26 16:18:42;;;;;;;4.07;1.40;;;;;;;;;;4876754;29;20040;-67
2022/05/26 16:21:09;;;;;;;2.50;1.50;;;;;;;;;;4876771;29;20040;-67
2022/05/26 16:23:38;;;;;;;5.65;1.50;;;;;;;;;;4876839;29;20025;-69
2022/05/26 16:26:05;;;;;;;3.97;1.42;;;;;;;;;;4875738;29;20040;-66
2022/05/26 16:28:31;;;;;;;2.83;1.20;;;;;;;;;;4887127;29;20401;-67
2022/05/26 16:30:57;;;;;;;4.60;1.38;;;;;;;;;;4880919;29;20379;-63
2022/05/26 16:33:23;;;;;;;3.75;1.58;;;;;;;;;;4891506;29;20039;-67
2022/05/26 16:38:35;;;;;;;2.35;1.23;;;;;;;;;;4887696;29;20040;-66
2022/05/26 16:41:03;;;;;;;2.80;1.27;;;;;;;;;;4880706;29;20115;-63
2022/05/26 16:43:29;;;;;;;2.83;1.17;;;;;;;;;;4891801;29;20176;-64
2022/05/26 16:45:55;;;;;;;2.10;1.10;;;;;;;;;;4882811;29;20473;-67
2022/05/26 16:48:21;;;;;;;3.03;1.08;;;;;;;;;;4885030;29;20501;-67
2022/05/26 16:50:47;;;;;;;2.47;0.90;;;;;;;;;;4889208;29;20405;-68
2022/05/26 16:53:14;;;;;;;3.88;1.17;;;;;;;;;;4879706;29;20029;-66
2022/05/26 16:55:42;;;;;;;3.40;1.00;;;;;;;;;;4888323;29;20029;-66
2022/05/26 16:58:08;;;;;;;4.25;1.00;;;;;;;;;;4887305;29;20052;-63
2022/05/26 17:00:34;;;;;;;2.60;1.40;;;;;;;;;;4887630;29;20036;-66
2022/05/26 17:03:03;;;;;;;4.38;1.13;;;;;;;;;;4880082;29;20017;-67
2022/05/26 17:05:29;;;;;;;3.25;1.30;;;;;;;;;;4891849;29;20036;-63
2022/05/26 17:07:55;;;;;;;3.08;1.17;;;;;;;;;;4876432;29;20017;-66
2022/05/26 17:10:25;;;;;;;3.20;1.10;;;;;;;;;;4876757;29;20069;-66
2022/05/26 17:21:08;;;;;;;3.13;1.40;;;;;;;;;;4876583;29;20048;-66
2022/05/26 17:23:35;;;;;;;3.15;1.00;;;;;;;;;;4876583;29;20477;-66
2022/05/26 17:26:02;;;;;;;2.20;1.10;;;;;;;;;;4876516;29;20036;-67
2022/05/26 17:28:29;;;;;;;3.45;1.20;;;;;;;;;;4876106;29;20033;-67
2022/05/26 17:30:57;;;;;;;3.55;1.45;;;;;;;;;;4876304;29;20029;-64
2022/05/26 17:33:23;;;;;;;4.18;1.30;;;;;;;;;;4876263;29;20044;-66
2022/05/26 17:35:49;;;;;;;3.75;1.38;;;;;;;;;;4876747;29;20119;-64
2022/05/26 17:38:16;;;;;;;3.53;1.23;;;;;;;;;;4878794;29;20047;-65
2022/05/26 17:40:42;;;;;;;3.90;1.10;;;;;;;;;;4880321;29;20085;-67
2022/05/26 17:43:12;;;;;;;5.30;1.55;;;;;;;;;;4879761;29;20029;-65
2022/05/26 17:45:39;;;;;;;3.13;1.20;;;;;;;;;;4879380;29;20056;-68
2022/05/26 17:48:05;;;;;;;4.88;1.70;;;;;;;;;;4879074;29;20092;-68
2022/05/26 17:50:32;;;;;;;2.88;1.40;;;;;;;;;;4879942;29;20051;-66
2022/05/26 17:53:00;;;;;;;3.13;1.20;;;;;;;;;;4880083;29;20036;-64
2022/05/26 17:55:26;;;;;;;3.42;1.52;;;;;;;;;;4883878;29;20040;-66
2022/05/26 17:57:53;;;;;;;3.65;1.55;;;;;;;;;;4880550;29;20111;-62
2022/05/26 18:03:07;;;;;;;5.90;3.03;;;;;;;;;;4885512;29;20036;-66
2022/05/26 18:05:34;;;;;;;6.97;2.28;;;;;;;;;;4879063;29;20486;-63
2022/05/26 18:08:01;;;;;;;8.63;3.50;;;;;;;;;;4893447;29;20065;-65
2022/05/26 18:10:27;;;;;;;5.07;3.22;;;;;;;;;;4886681;29;20017;-66
2022/05/26 18:12:55;;;;;;;12.10;6.63;;;;;;;;;;4886920;29;20032;-66
2022/05/26 18:15:22;;;;;;;12.23;8.80;;;;;;;;;;4893361;29;20056;-66
2022/05/26 18:17:48;;;;;;;11.80;7.97;;;;;;;;;;4881638;29;20071;-67
2022/05/26 18:20:14;;;;;;;6.88;4.47;;;;;;;;;;4891647;29;20056;-67
2022/05/26 18:22:42;;;;;;;5.63;3.45;;;;;;;;;;4888089;29;20029;-67
2022/05/26 18:25:09;;;;;;;3.35;1.95;;;;;;;;;;4884745;29;20033;-68
2022/05/26 18:27:35;;;;;;;4.57;1.90;;;;;;;;;;4894807;29;20040;-66
2022/05/26 18:30:01;;;;;;;4.18;2.28;;;;;;;;;;4882087;29;20179;-64
2022/05/26 18:32:27;;;;;;;5.93;2.88;;;;;;;;;;4885840;29;20064;-65
2022/05/26 18:34:56;;;;;;;5.00;2.22;;;;;;;;;;4886396;29;20151;-66
2022/05/26 18:37:30;;;;;;;5.28;1.70;;;;;;;;;;4893013;29;20041;-64
2022/05/26 18:39:56;;;;;;;5.75;1.73;;;;;;;;;;4882063;29;20033;-63
2022/05/26 18:42:22;;;;;;;7.32;2.10;;;;;;;;;;4889363;29;20037;-65
2022/05/26 18:44:49;;;;;;;3.63;1.80;;;;;;;;;;4888254;29;20552;-68
2022/05/26 18:47:17;;;;;;;4.55;1.73;;;;;;;;;;4897037;29;20451;-68
2022/05/26 18:49:43;;;;;;;7.07;2.40;;;;;;;;;;4897519;29;20060;-63
2022/05/26 18:52:10;;;;;;;8.48;2.17;;;;;;;;;;4893133;29;20029;-67
2022/05/26 18:54:36;;;;;;;4.53;1.67;;;;;;;;;;4878948;29;20482;-67
2022/05/26 18:57:02;;;;;;;7.05;2.30;;;;;;;;;;4862079;29;20119;-68
2022/05/26 18:59:29;;;;;;;8.43;2.10;;;;;;;;;;4879068;29;20121;-67
2022/05/26 19:01:56;;;;;;;6.32;2.45;;;;;;;;;;4870083;29;20414;-67
2022/05/26 19:04:23;;;;;;;9.18;2.20;;;;;;;;;;4880839;29;20052;-64
2022/05/26 19:06:50;;;;;;;9.30;2.20;;;;;;;;;;4881123;29;20081;-67
2022/05/26 19:09:16;;;;;;;8.30;2.35;;;;;;;;;;4878644;29;20029;-64
2022/05/26 19:11:48;;;;;;;3.53;1.98;;;;;;;;;;4878265;29;20057;-66
2022/05/26 19:14:23;;;;;;;8.90;2.47;;;;;;;;;;4878512;29;20048;-69
2022/05/26 19:16:50;;;;;;;5.72;2.50;;;;;;;;;;4878178;29;20079;-68
2022/05/26 19:19:16;;;;;;;5.55;2.60;;;;;;;;;;4877990;29;20108;-68
2022/05/26 19:21:42;;;;;;;7.10;2.83;;;;;;;;;;4878130;29;20036;-64
2022/05/26 19:24:14;;;;;;;6.97;2.67;;;;;;;;;;4888673;29;20056;-66
2022/05/26 19:27:06;;;;;;;7.97;3.63;;;;;;;;;;4896620;29;20025;-66
2022/05/26 19:29:37;;;;;;;10.68;4.43;;;;;;;;;;4892180;29;20036;-66
2022/05/26 19:32:04;;;;;;;8.10;3.30;;;;;;;;;;4879794;29;20020;-66
2022/05/26 19:34:30;;;;;;;10.05;3.42;;;;;;;;;;4896697;29;20039;-64
2022/05/26 19:36:56;;;;;;;6.20;3.70;;;;;;;;;;4896699;29;20073;-66
2022/05/26 19:39:22;;;;;;;8.15;3.10;;;;;;;;;;4896151;29;20029;-67
2022/05/26 19:41:49;;;;;;;7.80;3.28;;;;;;;;;;4896622;29;20025;-68
2022/05/26 19:44:16;;;;;;;7.60;3.38;;;;;;;;;;4896473;29;20045;-67
2022/05/26 19:46:43;;;;;;;5.88;3.03;;;;;;;;;;4896518;29;20033;-69
2022/05/26 19:49:09;;;;;;;8.70;3.55;;;;;;;;;;4896643;29;20047;-71
2022/05/26 19:51:36;;;;;;;8.60;3.25;;;;;;;;;;4896910;29;20116;-69
2022/05/26 19:54:02;;;;;;;7.78;3.70;;;;;;;;;;4888997;29;20469;-73
2022/05/26 19:56:28;;;;;;;20.52;10.90;;;;;;;;;;4880492;29;20047;-65
2022/05/26 19:58:55;;;;;;;10.30;4.28;;;;;;;;;;4889242;29;20025;-71
2022/05/26 20:01:21;;;;;;;11.00;4.22;;;;;;;;;;4886846;29;20036;-71
2022/05/26 20:03:48;;;;;;;10.10;5.95;;;;;;;;;;4882439;29;20464;-71
2022/05/26 20:06:17;;;;;;;7.95;3.65;;;;;;;;;;4892679;29;20032;-71
2022/05/26 20:08:44;;;;;;;8.07;3.15;;;;;;;;;;4882691;29;20096;-67
2022/05/26 20:11:10;;;;;;;6.50;2.90;;;;;;;;;;4886842;29;20036;-75
2022/05/26 20:13:36;;;;;;;5.80;3.35;;;;;;;;;;4889136;29;20028;-72
2022/05/26 20:16:03;;;;;;;6.55;3.30;;;;;;;;;;4880032;29;20089;-71
2022/05/26 20:18:30;;;;;;;7.63;3.00;;;;;;;;;;4891970;29;20549;-64
2022/05/26 20:20:58;;;;;;;8.25;3.38;;;;;;;;;;4883777;29;20172;-70